createdAt,value
2022-11-05T00:02:07.298Z,100.00
2022-11-05T00:04:33.812Z,100.00
2022-11-05T00:07:05.418Z,100.00
2022-11-05T00:09:33.474Z,100.00
2022-11-05T00:12:03.455Z,100.00
2022-11-05T00:14:30.146Z,100.00
2022-11-05T00:16:56.682Z,100.00
2022-11-05T00:19:24.702Z,100.00
2022-11-05T00:21:51.190Z,100.00
2022-11-05T00:24:23.225Z,100.00
2022-11-05T00:26:50.827Z,100.00
2022-11-05T00:29:17.311Z,100.00
2022-11-05T00:31:43.973Z,100.00
2022-11-05T00:34:10.490Z,100.00
2022-11-05T00:36:38.485Z,100.00
2022-11-05T00:39:05.966Z,100.00
2022-11-05T00:41:32.494Z,100.00
2022-11-05T00:43:59.085Z,100.00
2022-11-05T00:46:25.605Z,100.00
2022-11-05T00:48:52.103Z,100.00
2022-11-05T00:51:18.862Z,100.00
2022-11-05T00:53:46.815Z,100.00
2022-11-05T00:56:13.673Z,100.00
2022-11-05T00:58:40.267Z,100.00
2022-11-05T01:01:06.949Z,100.00
2022-11-05T01:03:35.550Z,100.00
2022-11-05T01:06:08.304Z,100.00
2022-11-05T01:08:35.093Z,100.00
2022-11-05T01:11:09.236Z,100.00
2022-11-05T01:13:35.806Z,100.00
2022-11-05T01:16:06.683Z,100.00
2022-11-05T01:18:33.368Z,100.00
2022-11-05T01:20:59.936Z,100.00
2022-11-05T01:23:26.483Z,100.00
2022-11-05T01:25:53.147Z,100.00
2022-11-05T01:28:21.065Z,100.00
2022-11-05T01:30:55.426Z,100.00
2022-11-05T01:33:21.965Z,100.00
2022-11-05T01:35:48.486Z,100.00
2022-11-05T01:38:15.144Z,100.00
2022-11-05T01:40:43.083Z,100.00
2022-11-05T01:43:16.363Z,100.00
2022-11-05T01:45:45.888Z,100.00
2022-11-05T01:48:17.038Z,100.00
2022-11-05T01:50:49.211Z,100.00
2022-11-05T01:53:21.727Z,100.00
2022-11-05T01:55:53.351Z,100.00
2022-11-05T01:58:24.593Z,100.00
2022-11-05T02:00:53.758Z,100.00
2022-11-05T02:03:20.981Z,100.00
2022-11-05T02:05:50.450Z,100.00
2022-11-05T02:08:27.324Z,100.00
2022-11-05T02:10:54.451Z,100.00
2022-11-05T02:13:20.968Z,100.00
2022-11-05T02:16:01.185Z,100.00
2022-11-05T02:18:40.395Z,100.00
2022-11-05T02:21:37.144Z,100.00
2022-11-05T02:24:25.142Z,100.00
2022-11-05T02:27:14.984Z,100.00
2022-11-05T02:30:03.245Z,100.00
2022-11-05T02:33:04.198Z,100.00
2022-11-05T02:35:55.921Z,100.00
2022-11-05T02:38:35.661Z,100.00
2022-11-05T02:41:08.656Z,100.00
2022-11-05T02:43:47.712Z,100.00
2022-11-05T02:46:27.504Z,100.00
2022-11-05T02:48:58.978Z,100.00
2022-11-05T02:51:33.682Z,100.00
2022-11-05T02:54:07.174Z,100.00
2022-11-05T02:56:36.790Z,100.00
2022-11-05T02:59:03.313Z,100.00
2022-11-05T03:01:30.106Z,100.00
2022-11-05T03:03:59.900Z,100.00
2022-11-05T03:06:43.326Z,100.00
2022-11-05T03:09:28.852Z,100.00
2022-11-05T03:12:07.994Z,100.00
2022-11-05T03:14:43.755Z,100.00
2022-11-05T03:17:16.664Z,100.00
2022-11-05T03:19:49.449Z,100.00
2022-11-05T03:22:21.767Z,100.00
2022-11-05T03:24:53.103Z,100.00
2022-11-05T03:27:23.313Z,100.00
2022-11-05T03:29:56.026Z,100.00
2022-11-05T03:32:24.579Z,100.00
2022-11-05T03:34:59.868Z,100.00
2022-11-05T03:37:29.615Z,100.00
2022-11-05T03:39:59.562Z,100.00
2022-11-05T03:42:29.980Z,100.00
2022-11-05T03:44:59.690Z,100.00
2022-11-05T03:47:32.353Z,100.00
2022-11-05T03:50:07.870Z,100.00
2022-11-05T03:52:41.794Z,100.00
2022-11-05T03:55:08.542Z,100.00
2022-11-05T03:57:39.287Z,100.00
2022-11-05T04:00:08.210Z,100.00
2022-11-05T04:02:34.864Z,100.00
2022-11-05T04:05:03.521Z,100.00
2022-11-05T04:07:30.045Z,100.00
2022-11-05T04:09:57.027Z,100.00
2022-11-05T04:12:23.808Z,100.00
2022-11-05T04:14:50.467Z,100.00
2022-11-05T04:17:17.011Z,100.00
2022-11-05T04:19:45.067Z,100.00
2022-11-05T04:22:13.118Z,100.00
2022-11-05T04:24:39.637Z,100.00
2022-11-05T04:27:06.311Z,100.00
2022-11-05T04:29:32.825Z,100.00
2022-11-05T04:31:59.366Z,100.00
2022-11-05T04:34:26.045Z,100.00
2022-11-05T04:36:52.778Z,100.00
2022-11-05T04:39:21.224Z,100.00
2022-11-05T04:41:48.110Z,100.00
2022-11-05T04:44:15.040Z,100.00
2022-11-05T04:46:41.594Z,100.00
2022-11-05T04:49:08.268Z,100.00
2022-11-05T04:51:34.791Z,100.00
2022-11-05T04:54:01.350Z,100.00
2022-11-05T04:56:29.205Z,100.00
2022-11-05T04:58:55.887Z,100.00
2022-11-05T05:01:23.941Z,100.00
2022-11-05T05:03:51.984Z,100.00
2022-11-05T05:06:18.877Z,100.00
2022-11-05T05:08:46.705Z,100.00
2022-11-05T05:11:15.004Z,100.00
2022-11-05T05:13:43.260Z,100.00
2022-11-05T05:16:18.374Z,100.00
2022-11-05T05:18:46.465Z,100.00
2022-11-05T05:21:13.338Z,100.00
2022-11-05T05:23:39.822Z,100.00
2022-11-05T05:26:06.437Z,100.00
2022-11-05T05:28:33.234Z,100.00
2022-11-05T05:31:01.349Z,100.00
2022-11-05T05:33:28.548Z,100.00
2022-11-05T05:35:57.710Z,100.00
2022-11-05T05:38:24.534Z,100.00
2022-11-05T05:40:51.152Z,100.00
2022-11-05T05:43:18.009Z,100.00
2022-11-05T05:45:44.539Z,100.00
2022-11-05T05:48:12.558Z,100.00
2022-11-05T05:50:39.072Z,100.00
2022-11-05T05:53:05.619Z,100.00
2022-11-05T05:55:32.287Z,100.00
2022-11-05T05:57:58.940Z,100.00
2022-11-05T06:00:25.481Z,100.00
2022-11-05T06:02:52.069Z,100.00
2022-11-05T06:05:20.018Z,100.00
2022-11-05T06:07:46.554Z,100.00
2022-11-05T06:10:13.265Z,100.00
2022-11-05T06:12:39.849Z,100.00
2022-11-05T06:15:07.081Z,100.00
2022-11-05T06:17:33.608Z,100.00
2022-11-05T06:20:00.270Z,100.00
2022-11-05T06:22:28.165Z,100.00
2022-11-05T06:24:54.674Z,100.00
2022-11-05T06:27:21.227Z,100.00
2022-11-05T06:29:47.786Z,100.00
2022-11-05T06:32:14.488Z,100.00
2022-11-05T06:34:41.015Z,100.00
2022-11-05T06:37:07.557Z,100.00
2022-11-05T06:39:35.427Z,100.00
2022-11-05T06:42:17.840Z,100.00
2022-11-05T06:44:45.151Z,100.00
2022-11-05T06:47:11.667Z,100.00
2022-11-05T06:49:38.386Z,100.00
2022-11-05T06:52:04.960Z,100.00
2022-11-05T06:54:31.621Z,100.00
2022-11-05T06:56:59.503Z,100.00
2022-11-05T06:59:26.024Z,100.00
2022-11-05T07:01:52.581Z,100.00
2022-11-05T07:04:19.152Z,100.00
2022-11-05T07:06:45.660Z,100.00
2022-11-05T07:09:12.218Z,100.00
2022-11-05T07:11:38.819Z,100.00
2022-11-05T07:14:06.746Z,100.00
2022-11-05T07:16:33.326Z,100.00
2022-11-05T07:18:59.858Z,100.00
2022-11-05T07:21:26.520Z,100.00
2022-11-05T07:23:53.006Z,100.00
2022-11-05T07:26:19.571Z,100.00
2022-11-05T07:28:46.101Z,100.00
2022-11-05T07:31:13.967Z,100.00
2022-11-05T07:33:40.519Z,100.00
2022-11-05T07:36:07.817Z,100.00
2022-11-05T07:38:34.409Z,100.00
2022-11-05T07:41:01.149Z,100.00
2022-11-05T07:43:27.826Z,100.00
2022-11-05T07:45:54.424Z,100.00
2022-11-05T07:48:22.279Z,100.00
2022-11-05T07:50:51.467Z,100.00
2022-11-05T07:53:18.141Z,100.00
2022-11-05T07:55:44.702Z,100.00
2022-11-05T07:58:11.965Z,100.00
2022-11-05T08:00:38.788Z,100.00
2022-11-05T08:03:08.915Z,100.00
2022-11-05T08:05:39.032Z,100.00
2022-11-05T08:08:07.738Z,100.00
2022-11-05T08:10:35.056Z,100.00
2022-11-05T08:13:01.969Z,100.00
2022-11-05T08:15:29.005Z,100.00
2022-11-05T08:17:59.045Z,100.00
2022-11-05T08:20:25.652Z,100.00
2022-11-05T08:22:53.613Z,100.00
2022-11-05T08:25:20.348Z,100.00
2022-11-05T08:27:46.880Z,100.00
2022-11-05T08:30:13.616Z,100.00
2022-11-05T08:32:40.272Z,100.00
2022-11-05T08:35:07.487Z,100.00
2022-11-05T08:37:33.977Z,100.00
2022-11-05T08:40:01.870Z,100.00
2022-11-05T08:42:28.500Z,100.00
2022-11-05T08:44:55.037Z,100.00
2022-11-05T08:47:21.607Z,100.00
2022-11-05T08:49:48.149Z,100.00
2022-11-05T08:52:14.825Z,100.00
2022-11-05T08:54:41.354Z,100.00
2022-11-05T08:57:09.340Z,98.52
2022-11-05T08:59:35.871Z,98.50
2022-11-05T09:02:02.482Z,99.24
2022-11-05T09:04:29.088Z,96.80
2022-11-05T09:06:55.698Z,95.83
2022-11-05T09:09:22.211Z,95.54
2022-11-05T09:12:13.152Z,94.16
2022-11-05T09:14:36.570Z,92.96
2022-11-05T09:17:03.214Z,93.08
2022-11-05T09:19:29.738Z,90.98
2022-11-05T09:21:56.406Z,89.87
2022-11-05T09:24:22.940Z,89.71
2022-11-05T09:26:49.469Z,90.14
2022-11-05T09:29:16.146Z,90.13
2022-11-05T09:31:44.166Z,89.34
2022-11-05T09:34:10.817Z,87.80
2022-11-05T09:36:37.340Z,86.56
2022-11-05T09:39:04.045Z,86.37
2022-11-05T09:41:35.375Z,86.46
2022-11-05T09:44:05.893Z,86.38
2022-11-05T09:46:43.489Z,86.19
2022-11-05T09:49:22.959Z,84.76
2022-11-05T09:51:49.552Z,84.67
2022-11-05T09:54:16.224Z,84.48
2022-11-05T09:56:43.064Z,83.33
2022-11-05T09:59:17.864Z,83.79
2022-11-05T10:01:45.613Z,84.36
2022-11-05T10:04:18.160Z,83.63
2022-11-05T10:06:49.196Z,81.18
2022-11-05T10:09:22.399Z,81.93
2022-11-05T10:11:54.909Z,80.54
2022-11-05T10:14:24.440Z,81.31
2022-11-05T10:16:54.864Z,78.01
2022-11-05T10:19:25.373Z,78.83
2022-11-05T10:22:11.227Z,78.67
2022-11-05T10:24:42.409Z,79.13
2022-11-05T10:27:14.421Z,79.53
2022-11-05T10:29:43.539Z,79.25
2022-11-05T10:32:15.015Z,79.44
2022-11-05T10:34:43.673Z,77.81
2022-11-05T10:37:10.615Z,77.65
2022-11-05T10:39:37.305Z,77.78
2022-11-05T10:42:33.860Z,78.45
2022-11-05T10:45:09.650Z,77.95
2022-11-05T10:47:48.321Z,77.87
2022-11-05T10:50:19.814Z,76.95
2022-11-05T10:52:55.525Z,78.43
2022-11-05T10:55:25.880Z,77.51
2022-11-05T10:57:52.616Z,77.07
2022-11-05T11:00:24.893Z,77.80
2022-11-05T11:02:53.785Z,75.95
2022-11-05T11:05:25.722Z,76.88
2022-11-05T11:07:59.000Z,77.22
2022-11-05T11:10:26.688Z,78.08
2022-11-05T11:12:53.924Z,78.33
2022-11-05T11:15:26.690Z,76.93
2022-11-05T11:17:53.897Z,75.88
2022-11-05T11:20:28.093Z,75.71
2022-11-05T11:23:00.753Z,75.78
2022-11-05T11:25:29.319Z,73.87
2022-11-05T11:28:00.526Z,72.83
2022-11-05T11:30:27.199Z,71.59
2022-11-05T11:32:59.726Z,70.50
2022-11-05T11:35:27.665Z,70.65
2022-11-05T11:37:56.870Z,71.68
2022-11-05T11:40:30.928Z,72.33
2022-11-05T11:43:02.950Z,72.89
2022-11-05T11:45:33.092Z,71.79
2022-11-05T11:48:02.279Z,71.66
2022-11-05T11:50:39.427Z,71.23
2022-11-05T11:53:26.804Z,70.20
2022-11-05T11:56:05.460Z,69.16
2022-11-05T11:58:38.870Z,68.05
2022-11-05T12:01:34.468Z,67.99
2022-11-05T12:04:14.387Z,67.98
2022-11-05T12:06:50.270Z,67.57
2022-11-05T12:09:23.621Z,68.33
2022-11-05T12:12:00.254Z,69.49
2022-11-05T12:14:36.199Z,67.87
2022-11-05T12:17:19.766Z,67.56
2022-11-05T12:20:09.170Z,68.72
2022-11-05T12:22:55.776Z,68.88
2022-11-05T12:25:29.198Z,68.11
2022-11-05T12:28:22.146Z,68.51
2022-11-05T12:30:54.631Z,68.00
2022-11-05T12:33:27.540Z,67.07
2022-11-05T12:36:06.984Z,66.88
2022-11-05T12:39:03.852Z,66.60
2022-11-05T12:41:37.639Z,67.36
2022-11-05T12:44:20.686Z,67.41
2022-11-05T12:46:59.164Z,65.79
2022-11-05T12:49:47.591Z,65.42
2022-11-05T12:52:27.013Z,67.79
2022-11-05T12:55:02.198Z,67.19
2022-11-05T12:57:31.736Z,65.40
2022-11-05T13:00:04.728Z,65.44
2022-11-05T13:02:37.669Z,65.80
2022-11-05T13:05:12.047Z,64.64
2022-11-05T13:07:44.885Z,65.18
2022-11-05T13:10:25.313Z,65.79
2022-11-05T13:12:59.367Z,65.20
2022-11-05T13:15:29.600Z,66.46
2022-11-05T13:17:58.939Z,65.92
2022-11-05T13:20:29.204Z,65.51
2022-11-05T13:23:02.151Z,64.44
2022-11-05T13:25:32.065Z,64.40
2022-11-05T13:28:05.033Z,65.56
2022-11-05T13:30:36.091Z,65.06
2022-11-05T13:33:05.760Z,64.61
2022-11-05T13:35:40.647Z,64.63
2022-11-05T13:38:15.342Z,64.93
2022-11-05T13:40:58.140Z,64.96
2022-11-05T13:43:36.027Z,65.03
2022-11-05T13:46:23.715Z,64.95
2022-11-05T13:49:17.708Z,64.88
2022-11-05T13:51:53.878Z,64.69
2022-11-05T13:54:48.631Z,64.59
2022-11-05T13:57:36.458Z,65.17
2022-11-05T14:00:10.290Z,65.47
2022-11-05T14:02:40.318Z,64.68
2022-11-05T14:05:17.243Z,63.71
2022-11-05T14:07:46.274Z,63.85
2022-11-05T14:10:24.575Z,64.51
2022-11-05T14:12:55.359Z,63.74
2022-11-05T14:15:25.692Z,63.73
2022-11-05T14:17:59.031Z,62.77
2022-11-05T14:20:44.856Z,62.92
2022-11-05T14:23:49.146Z,64.78
2022-11-05T14:26:21.674Z,65.39
2022-11-05T14:29:23.042Z,66.18
2022-11-05T14:32:09.486Z,65.85
2022-11-05T14:34:42.197Z,65.44
2022-11-05T14:37:33.190Z,65.92
2022-11-05T14:40:29.325Z,66.13
2022-11-05T14:42:58.169Z,66.99
2022-11-05T14:45:29.865Z,68.08
2022-11-05T14:47:58.768Z,67.87
2022-11-05T14:50:34.575Z,68.44
2022-11-05T14:53:09.570Z,69.22
2022-11-05T14:55:39.700Z,69.46
2022-11-05T14:58:25.976Z,70.49
2022-11-05T15:00:55.091Z,70.88
2022-11-05T15:03:46.840Z,71.83
2022-11-05T15:06:26.738Z,73.75
2022-11-05T15:09:21.535Z,73.22
2022-11-05T15:12:13.701Z,74.91
2022-11-05T15:14:54.136Z,74.55
2022-11-05T15:17:26.086Z,74.56
2022-11-05T15:19:53.333Z,74.41
2022-11-05T15:22:29.539Z,73.85
2022-11-05T15:24:56.355Z,73.44
2022-11-05T15:27:37.810Z,74.64
2022-11-05T15:30:13.732Z,74.46
2022-11-05T15:32:41.895Z,74.32
2022-11-05T15:35:18.791Z,75.35
2022-11-05T15:37:52.356Z,76.18
2022-11-05T15:40:24.141Z,75.65
2022-11-05T15:43:13.905Z,78.21
2022-11-05T15:45:40.814Z,76.66
2022-11-05T15:48:19.799Z,78.19
2022-11-05T15:50:46.446Z,79.54
2022-11-05T15:53:47.343Z,79.84
2022-11-05T15:56:23.577Z,79.52
2022-11-05T15:58:53.134Z,80.43
2022-11-05T16:01:22.606Z,79.46
2022-11-05T16:03:57.062Z,80.58
2022-11-05T16:06:28.265Z,81.48
2022-11-05T16:08:54.878Z,82.16
2022-11-05T16:11:25.668Z,82.65
2022-11-05T16:13:53.854Z,82.50
2022-11-05T16:16:33.057Z,82.81
2022-11-05T16:19:01.104Z,82.08
2022-11-05T16:21:27.648Z,83.26
2022-11-05T16:23:55.890Z,84.36
2022-11-05T16:26:55.831Z,83.00
2022-11-05T16:29:18.274Z,84.11
2022-11-05T16:31:49.691Z,84.25
2022-11-05T16:34:26.424Z,84.98
2022-11-05T16:36:55.150Z,84.16
2022-11-05T16:39:21.659Z,85.24
2022-11-05T16:41:48.190Z,85.42
2022-11-05T16:44:15.045Z,86.04
2022-11-05T16:46:44.069Z,85.76
2022-11-05T16:49:11.934Z,85.85
2022-11-05T16:51:39.816Z,86.79
2022-11-05T16:54:06.356Z,86.34
2022-11-05T16:56:33.363Z,86.07
2022-11-05T16:59:00.066Z,86.93
2022-11-05T17:01:26.674Z,86.11
2022-11-05T17:03:53.625Z,85.81
2022-11-05T17:06:21.382Z,86.79
2022-11-05T17:08:49.361Z,84.97
2022-11-05T17:11:18.322Z,85.18
2022-11-05T17:13:45.391Z,84.91
2022-11-05T17:16:13.471Z,85.27
2022-11-05T17:18:41.058Z,84.41
2022-11-05T17:21:08.660Z,84.57
2022-11-05T17:23:35.966Z,84.10
2022-11-05T17:26:06.140Z,84.16
2022-11-05T17:28:33.259Z,84.11
2022-11-05T17:31:01.384Z,83.93
2022-11-05T17:33:28.633Z,84.43
2022-11-05T17:35:55.841Z,84.59
2022-11-05T17:38:24.196Z,85.02
2022-11-05T17:40:50.843Z,85.07
2022-11-05T17:43:19.797Z,85.34
2022-11-05T17:45:48.207Z,85.19
2022-11-05T17:48:15.567Z,85.95
2022-11-05T17:50:43.595Z,85.95
2022-11-05T17:53:10.997Z,86.41
2022-11-05T17:55:40.198Z,86.36
2022-11-05T17:58:06.910Z,86.57
2022-11-05T18:00:35.166Z,86.61
2022-11-05T18:03:01.704Z,86.97
2022-11-05T18:05:28.247Z,87.42
2022-11-05T18:07:55.246Z,87.59
2022-11-05T18:10:22.380Z,87.70
2022-11-05T18:12:49.897Z,88.42
2022-11-05T18:15:17.117Z,88.65
2022-11-05T18:17:45.141Z,88.46
2022-11-05T18:20:18.587Z,88.58
2022-11-05T18:22:48.092Z,88.65
2022-11-05T18:25:14.670Z,88.82
2022-11-05T18:27:41.813Z,88.26
2022-11-05T18:30:10.185Z,88.13
2022-11-05T18:32:37.006Z,88.47
2022-11-05T18:35:05.765Z,88.02
2022-11-05T18:37:32.287Z,87.74
2022-11-05T18:39:59.607Z,87.95
2022-11-05T18:42:26.207Z,88.07
2022-11-05T18:44:52.756Z,88.42
2022-11-05T18:47:19.538Z,88.66
2022-11-05T18:49:46.064Z,88.62
2022-11-05T18:52:13.947Z,88.72
2022-11-05T18:54:40.953Z,89.19
2022-11-05T18:57:07.623Z,89.16
2022-11-05T18:59:38.145Z,88.86
2022-11-05T19:02:05.893Z,88.82
2022-11-05T19:04:32.693Z,88.85
2022-11-05T19:07:04.462Z,88.19
2022-11-05T19:09:32.965Z,87.87
2022-11-05T19:11:59.541Z,86.76
2022-11-05T19:14:26.166Z,87.54
2022-11-05T19:16:52.705Z,86.79
2022-11-05T19:19:19.260Z,86.69
2022-11-05T19:21:45.977Z,87.32
2022-11-05T19:24:16.768Z,87.31
2022-11-05T19:26:45.043Z,86.44
2022-11-05T19:29:11.601Z,86.63
2022-11-05T19:31:38.512Z,86.84
2022-11-05T19:34:05.497Z,86.36
2022-11-05T19:36:33.482Z,85.97
2022-11-05T19:39:02.525Z,86.35
2022-11-05T19:41:29.329Z,86.22
2022-11-05T19:43:57.270Z,86.24
2022-11-05T19:46:24.882Z,86.38
2022-11-05T19:48:51.918Z,85.74
2022-11-05T19:51:20.572Z,85.59
2022-11-05T19:53:47.235Z,85.80
2022-11-05T19:56:15.787Z,85.21
2022-11-05T19:58:42.794Z,85.18
2022-11-05T20:01:12.828Z,85.21
2022-11-05T20:03:40.936Z,85.96
2022-11-05T20:06:10.051Z,85.42
2022-11-05T20:08:53.436Z,84.91
2022-11-05T20:11:24.296Z,85.17
2022-11-05T20:13:50.990Z,84.89
2022-11-05T20:16:23.824Z,84.80
2022-11-05T20:18:50.778Z,84.88
2022-11-05T20:21:17.667Z,85.11
2022-11-05T20:23:44.778Z,85.75
2022-11-05T20:26:12.325Z,85.96
2022-11-05T20:28:39.654Z,86.31
2022-11-05T20:31:07.658Z,86.66
2022-11-05T20:33:35.562Z,86.52
2022-11-05T20:36:04.707Z,87.11
2022-11-05T20:38:31.318Z,87.32
2022-11-05T20:40:57.811Z,87.14
2022-11-05T20:43:29.188Z,87.31
2022-11-05T20:45:57.915Z,87.28
2022-11-05T20:48:24.452Z,87.57
2022-11-05T20:50:52.405Z,87.98
2022-11-05T20:53:18.936Z,88.39
2022-11-05T20:55:47.338Z,89.13
2022-11-05T20:58:15.830Z,89.50
2022-11-05T21:00:48.770Z,90.14
2022-11-05T21:03:15.277Z,90.55
2022-11-05T21:05:45.203Z,91.06
2022-11-05T21:08:13.951Z,91.13
2022-11-05T21:10:42.560Z,90.92
2022-11-05T21:13:11.494Z,90.59
2022-11-05T21:15:38.012Z,89.96
2022-11-05T21:18:05.045Z,90.45
2022-11-05T21:20:31.706Z,90.37
2022-11-05T21:22:58.209Z,90.66
2022-11-05T21:25:26.294Z,90.83
2022-11-05T21:27:52.846Z,91.00
2022-11-05T21:30:19.374Z,91.05
2022-11-05T21:32:45.920Z,91.24
2022-11-05T21:35:12.447Z,91.81
2022-11-05T21:37:38.955Z,92.06
2022-11-05T21:40:06.332Z,92.13
2022-11-05T21:42:34.150Z,92.33
2022-11-05T21:45:00.889Z,92.63
2022-11-05T21:47:27.813Z,92.67
2022-11-05T21:49:54.342Z,92.94
2022-11-05T21:52:20.899Z,92.99
2022-11-05T21:54:47.583Z,93.61
2022-11-05T21:57:15.635Z,93.79
2022-11-05T21:59:43.587Z,93.77
2022-11-05T22:02:12.156Z,94.17
2022-11-05T22:04:40.269Z,94.32
2022-11-05T22:07:08.741Z,94.53
2022-11-05T22:09:35.733Z,94.95
2022-11-05T22:12:02.769Z,94.60
2022-11-05T22:14:29.959Z,94.60
2022-11-05T22:16:58.358Z,94.92
2022-11-05T22:19:25.569Z,95.21
2022-11-05T22:21:52.817Z,95.32
2022-11-05T22:24:19.740Z,95.42
2022-11-05T22:26:46.679Z,95.31
2022-11-05T22:29:13.661Z,95.26
2022-11-05T22:31:40.549Z,95.56
2022-11-05T22:34:12.913Z,95.25
2022-11-05T22:36:39.660Z,95.06
2022-11-05T22:39:06.242Z,95.36
2022-11-05T22:41:32.955Z,95.10
2022-11-05T22:43:59.549Z,95.31
2022-11-05T22:46:27.070Z,95.06
2022-11-05T22:48:53.622Z,95.35
2022-11-05T22:51:23.212Z,95.14
2022-11-05T22:53:49.972Z,95.11
2022-11-05T22:56:18.049Z,95.28
2022-11-05T22:58:44.762Z,95.60
2022-11-05T23:01:12.581Z,95.54
2022-11-05T23:03:40.831Z,95.60
2022-11-05T23:06:12.035Z,95.66
2022-11-05T23:08:39.888Z,95.89
2022-11-05T23:11:14.284Z,94.99
2022-11-05T23:13:40.821Z,94.14
2022-11-05T23:16:07.790Z,94.10
2022-11-05T23:18:34.304Z,94.37
2022-11-05T23:21:00.975Z,94.33
2022-11-05T23:23:27.562Z,94.74
2022-11-05T23:25:57.881Z,94.95
2022-11-05T23:28:24.702Z,94.33
2022-11-05T23:30:51.246Z,94.67
2022-11-05T23:33:17.744Z,94.87
2022-11-05T23:35:44.246Z,94.62
2022-11-05T23:38:11.000Z,95.19
2022-11-05T23:40:37.945Z,95.01
2022-11-05T23:43:05.802Z,95.07
2022-11-05T23:45:33.285Z,94.98
2022-11-05T23:48:06.077Z,95.32
2022-11-05T23:50:37.156Z,95.72
2022-11-05T23:53:05.963Z,96.12
2022-11-05T23:55:32.501Z,96.19
2022-11-05T23:57:59.028Z,96.52
